Time;durP1;ratioP1;P1;durP2;ratioP2;P2;SDS_P1;SDS_P2;PMS_P1;PMS_P2;Temp;Humidity;BMP_temperature;BMP_pressure;BME280_temperature;BME280_humidity;BME280_pressure;Samples;Min_cycle;Max_cycle;Signal;HPM_P1;HPM_P2
2023/08/20 00:00:04;;;;;;;14.43;5.72;;;15.90;99.90;;;;;;7378290;19;20021;-64
2023/08/20 00:02:41;;;;;;;13.32;5.80;;;15.90;99.90;;;;;;7376340;19;20786;-64
2023/08/20 00:05:09;;;;;;;12.05;5.65;;;15.80;99.90;;;;;;7375757;19;20039;-65
2023/08/20 00:07:35;;;;;;;9.60;5.88;;;15.80;99.90;;;;;;7376780;19;20029;-65
2023/08/20 00:10:04;;;;;;;13.20;6.38;;;15.70;99.90;;;;;;7373115;19;20029;-65
2023/08/20 00:12:30;;;;;;;10.73;6.03;;;15.70;99.90;;;;;;7371891;19;20026;-65
2023/08/20 00:15:07;;;;;;;11.15;6.03;;;15.70;99.90;;;;;;7375301;19;20023;-64
2023/08/20 00:17:35;;;;;;;11.90;5.95;;;15.70;99.90;;;;;;7371427;19;20022;-65
2023/08/20 00:20:09;;;;;;;10.00;5.20;;;15.70;99.90;;;;;;7374722;19;20021;-66
2023/08/20 00:22:36;;;;;;;12.23;5.55;;;15.70;99.90;;;;;;7369690;19;20431;-65
2023/08/20 00:25:05;;;;;;;11.93;5.80;;;15.60;99.90;;;;;;7371761;19;20025;-65
2023/08/20 00:27:32;;;;;;;12.93;5.47;;;15.60;99.90;;;;;;7374994;19;20021;-65
2023/08/20 00:29:59;;;;;;;13.30;6.10;;;15.60;99.90;;;;;;7371613;19;20015;-64
2023/08/20 00:32:26;;;;;;;9.80;4.72;;;15.50;99.90;;;;;;7376155;19;21009;-65
2023/08/20 00:34:53;;;;;;;10.52;5.13;;;15.50;99.90;;;;;;7368063;19;20029;-65
2023/08/20 00:37:20;;;;;;;9.85;6.03;;;15.50;99.90;;;;;;7374498;19;20064;-65
2023/08/20 00:39:46;;;;;;;14.88;6.53;;;15.40;99.90;;;;;;7371459;19;20025;-67
2023/08/20 00:42:14;;;;;;;13.55;6.57;;;15.40;99.90;;;;;;7374652;19;20041;-65
2023/08/20 00:44:41;;;;;;;11.50;7.00;;;15.40;99.90;;;;;;7375090;19;20018;-66
2023/08/20 00:47:08;;;;;;;12.00;6.60;;;15.40;99.90;;;;;;7372932;19;20060;-65
2023/08/20 00:49:35;;;;;;;12.77;7.07;;;15.30;99.90;;;;;;7372366;19;20022;-65
2023/08/20 00:52:02;;;;;;;14.88;7.57;;;15.30;99.90;;;;;;7373155;19;20055;-65
2023/08/20 00:54:32;;;;;;;10.65;6.40;;;15.20;99.90;;;;;;7364993;19;20619;-65
2023/08/20 00:56:59;;;;;;;8.73;5.88;;;15.20;99.90;;;;;;7370802;19;20671;-65
2023/08/20 00:59:26;;;;;;;9.20;5.65;;;15.10;99.90;;;;;;7373175;19;20018;-65
2023/08/20 01:01:53;;;;;;;10.45;6.03;;;15.00;99.90;;;;;;7372663;19;20039;-65
2023/08/20 01:04:19;;;;;;;13.35;7.53;;;15.00;99.90;;;;;;7368264;19;20014;-66
2023/08/20 01:07:14;;;;;;;17.42;8.07;;;15.00;99.90;;;;;;7374416;19;20371;-66
2023/08/20 01:10:08;;;;;;;12.52;7.40;;;15.00;99.90;;;;;;7373390;19;20014;-65
2023/08/20 01:12:36;;;;;;;11.40;7.28;;;15.00;99.90;;;;;;7369493;19;20081;-65
2023/08/20 01:15:02;;;;;;;12.02;6.72;;;15.00;99.90;;;;;;7369479;19;20048;-65
2023/08/20 01:17:33;;;;;;;11.18;6.55;;;15.00;99.90;;;;;;7368949;19;20015;-65
2023/08/20 01:19:59;;;;;;;10.60;6.30;;;15.00;99.90;;;;;;7372262;19;20041;-65
2023/08/20 01:22:44;;;;;;;14.32;6.93;;;15.00;99.90;;;;;;7370040;19;20010;-65
2023/08/20 01:25:23;;;;;;;13.73;7.35;;;15.00;99.90;;;;;;7372026;19;20014;-66
2023/08/20 01:28:26;;;;;;;10.10;6.72;;;14.90;99.90;;;;;;7369410;19;20469;-65
2023/08/20 01:30:54;;;;;;;10.57;6.63;;;14.90;99.90;;;;;;7372360;19;20768;-65
2023/08/20 01:33:20;;;;;;;11.18;6.20;;;14.80;99.90;;;;;;7375787;19;20018;-66
2023/08/20 01:35:47;;;;;;;10.40;6.07;;;14.80;99.90;;;;;;7369530;19;20157;-65
2023/08/20 01:38:16;;;;;;;8.60;6.68;;;14.80;99.90;;;;;;7370996;19;20462;-66
2023/08/20 01:40:43;;;;;;;11.57;8.57;;;14.70;99.90;;;;;;7367992;19;20363;-66
2023/08/20 01:43:09;;;;;;;12.07;8.50;;;14.70;99.90;;;;;;7365934;19;20022;-65
2023/08/20 01:45:36;;;;;;;12.52;8.25;;;14.80;99.90;;;;;;7365123;19;20042;-65
2023/08/20 01:48:03;;;;;;;10.43;7.38;;;14.80;99.90;;;;;;7366745;19;20018;-65
2023/08/20 01:50:30;;;;;;;14.38;8.50;;;14.80;99.90;;;;;;7371839;19;20477;-66
2023/08/20 01:52:57;;;;;;;15.10;7.72;;;14.80;99.90;;;;;;7379099;19;20022;-66
2023/08/20 01:55:23;;;;;;;12.32;8.02;;;14.80;99.90;;;;;;7373026;19;20044;-66
2023/08/20 01:57:49;;;;;;;16.55;9.00;;;14.80;99.90;;;;;;7370961;19;20015;-66
2023/08/20 02:00:15;;;;;;;15.77;9.82;;;14.80;99.90;;;;;;7372480;19;20037;-66
2023/08/20 02:02:42;;;;;;;12.00;8.70;;;14.70;99.90;;;;;;7370999;19;20029;-66
2023/08/20 02:05:10;;;;;;;12.57;8.43;;;14.70;99.90;;;;;;7373163;19;20895;-66
2023/08/20 02:07:38;;;;;;;10.05;7.68;;;14.70;99.90;;;;;;7371362;19;20545;-66
2023/08/20 02:10:05;;;;;;;12.65;7.63;;;14.60;99.90;;;;;;7372481;19;20037;-66
2023/08/20 02:12:31;;;;;;;10.07;7.22;;;14.60;99.90;;;;;;7372015;19;20015;-66
2023/08/20 02:14:57;;;;;;;10.35;6.93;;;14.60;99.90;;;;;;7371555;19;20030;-66
2023/08/20 02:17:26;;;;;;;11.23;7.45;;;14.50;99.90;;;;;;7366831;19;20022;-66
2023/08/20 02:19:53;;;;;;;11.98;6.57;;;14.50;99.90;;;;;;7373799;19;20031;-66
2023/08/20 02:22:20;;;;;;;10.00;6.28;;;14.50;99.90;;;;;;7370434;19;20022;-65
2023/08/20 02:24:50;;;;;;;11.95;7.47;;;14.40;99.90;;;;;;7369968;19;20033;-65
2023/08/20 02:27:17;;;;;;;12.25;8.02;;;14.50;99.90;;;;;;7374202;19;20019;-65
2023/08/20 02:29:45;;;;;;;11.48;8.32;;;14.50;99.90;;;;;;7372097;19;20018;-64
2023/08/20 02:32:14;;;;;;;10.23;8.70;;;14.50;99.90;;;;;;7371824;19;20085;-65
2023/08/20 02:34:41;;;;;;;15.00;9.35;;;14.50;99.90;;;;;;7370619;19;20485;-66
2023/08/20 02:37:07;;;;;;;12.23;8.82;;;14.50;99.90;;;;;;7371828;19;20026;-65
2023/08/20 02:39:33;;;;;;;10.98;8.50;;;14.50;99.90;;;;;;7369672;19;20014;-66
2023/08/20 02:42:01;;;;;;;14.80;9.30;;;14.50;99.90;;;;;;7372757;19;20443;-66
2023/08/20 02:44:28;;;;;;;10.57;8.10;;;14.50;99.90;;;;;;7371015;19;20043;-65
2023/08/20 02:46:54;;;;;;;8.73;7.25;;;14.40;99.90;;;;;;7371712;19;20036;-65
2023/08/20 02:49:20;;;;;;;9.75;7.07;;;14.30;99.90;;;;;;7373902;19;20011;-64
2023/08/20 02:51:46;;;;;;;10.70;7.65;;;14.30;99.90;;;;;;7372349;19;20023;-64
2023/08/20 02:54:13;;;;;;;8.65;7.60;;;14.20;99.90;;;;;;7369665;19;20089;-66
2023/08/20 02:56:39;;;;;;;10.77;8.63;;;14.20;99.90;;;;;;7370028;19;20026;-65
2023/08/20 02:59:05;;;;;;;9.38;8.40;;;14.20;99.90;;;;;;7372508;19;20035;-65
2023/08/20 03:01:32;;;;;;;12.35;10.20;;;14.30;99.90;;;;;;7373379;19;20029;-65
2023/08/20 03:03:58;;;;;;;12.07;10.35;;;14.30;99.90;;;;;;7373705;19;20906;-66
2023/08/20 03:06:24;;;;;;;13.02;10.88;;;14.20;99.90;;;;;;7371916;19;20027;-67
2023/08/20 03:08:50;;;;;;;14.38;10.23;;;14.20;99.90;;;;;;7372368;19;20031;-65
2023/08/20 03:11:16;;;;;;;15.13;11.10;;;14.30;99.90;;;;;;7375152;19;20650;-65
2023/08/20 03:13:43;;;;;;;14.30;11.88;;;14.20;99.90;;;;;;7371878;19;20010;-65
2023/08/20 03:16:09;;;;;;;15.13;11.65;;;14.30;99.90;;;;;;7374109;19;20015;-65
2023/08/20 03:18:35;;;;;;;16.42;12.98;;;14.30;99.90;;;;;;7370176;19;20527;-65
2023/08/20 03:21:02;;;;;;;15.00;11.75;;;14.30;99.90;;;;;;7371683;19;20611;-65
2023/08/20 03:23:31;;;;;;;17.80;12.55;;;14.30;99.90;;;;;;7367874;19;20022;-65
2023/08/20 03:26:02;;;;;;;12.35;11.05;;;14.30;99.90;;;;;;7374056;19;20025;-65
2023/08/20 03:28:32;;;;;;;12.13;10.75;;;14.30;99.90;;;;;;7372341;19;20010;-65
2023/08/20 03:31:01;;;;;;;16.13;12.02;;;14.30;99.90;;;;;;7372698;19;20641;-65
2023/08/20 03:33:30;;;;;;;14.70;12.30;;;14.30;99.90;;;;;;7371590;19;20078;-66
2023/08/20 03:35:56;;;;;;;15.98;12.40;;;14.30;99.90;;;;;;7369860;19;20764;-66
2023/08/20 03:38:23;;;;;;;14.23;12.77;;;14.20;99.90;;;;;;7372244;19;20025;-65
2023/08/20 03:40:50;;;;;;;13.70;11.38;;;14.20;99.90;;;;;;7366551;19;20019;-66
2023/08/20 03:43:16;;;;;;;13.52;11.48;;;14.20;99.90;;;;;;7371039;19;20025;-65
2023/08/20 03:45:42;;;;;;;11.95;10.90;;;14.20;99.90;;;;;;7370503;19;20759;-65
2023/08/20 03:48:08;;;;;;;16.75;12.60;;;14.10;99.90;;;;;;7372335;19;20449;-65
2023/08/20 03:50:35;;;;;;;19.45;12.52;;;14.20;99.90;;;;;;7366516;19;20030;-65
2023/08/20 03:53:01;;;;;;;15.35;12.45;;;14.10;99.90;;;;;;7369961;19;20033;-65
2023/08/20 03:55:27;;;;;;;14.35;12.52;;;14.10;99.90;;;;;;7371045;19;20690;-65
2023/08/20 03:57:53;;;;;;;14.80;11.38;;;14.10;99.90;;;;;;7371258;19;20019;-65
2023/08/20 04:00:20;;;;;;;17.90;11.00;;;14.10;99.90;;;;;;7372724;19;20026;-66
2023/08/20 04:02:46;;;;;;;15.32;11.85;;;14.10;99.90;;;;;;7370788;19;20388;-65
2023/08/20 04:05:13;;;;;;;13.30;10.13;;;14.10;99.90;;;;;;7371315;19;20024;-66
2023/08/20 04:07:39;;;;;;;11.30;10.00;;;14.10;99.90;;;;;;7369177;19;20022;-65
2023/08/20 04:10:07;;;;;;;11.73;10.48;;;14.10;99.90;;;;;;7366841;19;20023;-65
2023/08/20 04:12:36;;;;;;;14.05;11.50;;;14.00;99.90;;;;;;7369838;19;20090;-66
2023/08/20 04:15:03;;;;;;;11.15;10.15;;;14.00;99.90;;;;;;7371443;19;20025;-65
2023/08/20 04:17:30;;;;;;;15.57;10.65;;;14.00;99.90;;;;;;7370034;19;20471;-64
2023/08/20 04:19:56;;;;;;;12.13;10.75;;;14.00;99.90;;;;;;7369617;19;20719;-65
2023/08/20 04:22:22;;;;;;;15.88;11.68;;;14.00;99.90;;;;;;7369509;19;20014;-65
2023/08/20 04:24:48;;;;;;;13.35;10.90;;;14.00;99.90;;;;;;7370600;19;20036;-65
2023/08/20 04:27:14;;;;;;;12.57;10.20;;;14.00;99.90;;;;;;7371543;19;20486;-65
2023/08/20 04:29:44;;;;;;;13.15;10.07;;;14.00;99.90;;;;;;7368781;19;20026;-65
2023/08/20 04:32:10;;;;;;;12.57;10.82;;;13.90;99.90;;;;;;7366342;19;20047;-66
2023/08/20 04:34:36;;;;;;;14.18;10.45;;;13.90;99.90;;;;;;7370827;19;20022;-65
2023/08/20 04:37:03;;;;;;;15.75;9.98;;;14.00;99.90;;;;;;7367700;19;20086;-65
2023/08/20 04:39:35;;;;;;;15.43;12.55;;;14.00;99.90;;;;;;7367913;19;20361;-65
2023/08/20 04:42:01;;;;;;;14.55;11.48;;;13.90;99.90;;;;;;7367611;19;20475;-65
2023/08/20 04:44:28;;;;;;;14.10;12.63;;;14.00;99.90;;;;;;7373284;19;20089;-65
2023/08/20 04:46:56;;;;;;;12.70;11.35;;;14.00;99.90;;;;;;7366268;19;20018;-65
2023/08/20 04:49:22;;;;;;;14.75;12.48;;;14.00;99.90;;;;;;7368572;19;20822;-65
2023/08/20 04:51:48;;;;;;;15.40;13.25;;;14.10;99.90;;;;;;7364019;19;20029;-65
2023/08/20 04:54:15;;;;;;;16.48;13.55;;;14.10;99.90;;;;;;7370929;19;20069;-65
2023/08/20 04:56:41;;;;;;;15.63;13.10;;;14.10;99.90;;;;;;7362525;19;20018;-66
2023/08/20 04:59:07;;;;;;;18.38;14.90;;;14.10;99.90;;;;;;7370845;19;20606;-67
2023/08/20 05:02:09;;;;;;;15.47;14.07;;;14.20;99.90;;;;;;7361605;19;20029;-66
2023/08/20 05:04:41;;;;;;;19.65;14.40;;;14.20;99.90;;;;;;7368522;19;20770;-66
2023/08/20 05:07:07;;;;;;;15.48;13.88;;;14.30;99.90;;;;;;7365510;19;20030;-65
2023/08/20 05:09:34;;;;;;;16.98;15.07;;;14.30;99.90;;;;;;7367166;19;20033;-67
2023/08/20 05:12:00;;;;;;;16.75;13.85;;;14.40;99.90;;;;;;7366032;19;20026;-65
2023/08/20 05:14:26;;;;;;;20.52;14.82;;;14.40;99.90;;;;;;7367353;19;20022;-66
2023/08/20 05:16:53;;;;;;;16.17;13.30;;;14.50;99.90;;;;;;7360265;19;20029;-65
2023/08/20 05:19:19;;;;;;;18.67;15.35;;;14.50;99.90;;;;;;7367756;19;20018;-65
2023/08/20 05:21:45;;;;;;;20.52;17.95;;;14.60;99.90;;;;;;7361454;19;20032;-65
2023/08/20 05:24:12;;;;;;;23.33;20.73;;;14.70;99.90;;;;;;7365711;19;20018;-67
2023/08/20 05:26:38;;;;;;;24.73;21.98;;;14.80;99.90;;;;;;7365633;19;20018;-66
2023/08/20 05:29:05;;;;;;;27.10;20.92;;;15.00;99.90;;;;;;7364097;19;20074;-67
2023/08/20 05:31:33;;;;;;;26.67;21.70;;;15.10;99.90;;;;;;7362596;19;20460;-69
2023/08/20 05:34:00;;;;;;;19.25;17.23;;;15.30;99.90;;;;;;7366646;19;20018;-67
2023/08/20 05:36:27;;;;;;;21.20;16.75;;;15.50;99.90;;;;;;7367377;19;20363;-67
2023/08/20 05:38:53;;;;;;;17.02;14.65;;;15.70;99.90;;;;;;7364822;19;20532;-67
2023/08/20 05:41:19;;;;;;;14.50;12.80;;;15.90;99.90;;;;;;7363414;19;20018;-65
2023/08/20 05:43:45;;;;;;;15.70;12.20;;;16.10;99.90;;;;;;7362611;19;20035;-66
2023/08/20 05:46:11;;;;;;;15.40;12.18;;;16.20;99.90;;;;;;7363184;19;20497;-67
2023/08/20 05:48:38;;;;;;;13.35;11.50;;;16.30;99.90;;;;;;7363938;19;20471;-67
2023/08/20 05:51:04;;;;;;;14.70;11.90;;;16.40;99.90;;;;;;7360253;19;20078;-67
2023/08/20 05:53:31;;;;;;;11.57;9.82;;;16.50;99.90;;;;;;7362975;19;20015;-65
2023/08/20 05:55:57;;;;;;;18.13;12.75;;;16.70;99.90;;;;;;7359289;19;20548;-67
2023/08/20 05:58:23;;;;;;;15.38;9.82;;;16.90;99.90;;;;;;7363337;19;20579;-68
2023/08/20 06:00:49;;;;;;;14.40;9.45;;;17.10;99.90;;;;;;7360230;19;20369;-68
2023/08/20 06:03:16;;;;;;;17.33;9.50;;;17.30;99.90;;;;;;7369323;19;20546;-65
2023/08/20 06:05:42;;;;;;;16.13;9.00;;;17.40;99.90;;;;;;7369549;19;20604;-66
2023/08/20 06:08:08;;;;;;;12.00;9.02;;;17.60;99.90;;;;;;7369392;19;20489;-66
2023/08/20 06:10:37;;;;;;;12.85;7.68;;;17.80;99.90;;;;;;7369732;19;20106;-66
2023/08/20 06:13:03;;;;;;;11.43;7.72;;;17.90;99.90;;;;;;7372115;19;20482;-66
2023/08/20 06:15:30;;;;;;;14.82;7.22;;;18.10;99.90;;;;;;7368934;19;20010;-67
2023/08/20 06:17:56;;;;;;;12.35;6.82;;;18.30;99.90;;;;;;7365953;19;20022;-66
2023/08/20 06:20:23;;;;;;;9.40;6.53;;;18.50;99.90;;;;;;7367663;19;20018;-66
2023/08/20 06:22:49;;;;;;;15.38;6.60;;;18.60;99.90;;;;;;7364616;19;20018;-66
2023/08/20 06:25:15;;;;;;;12.38;6.35;;;18.70;99.90;;;;;;7367366;19;20466;-66
2023/08/20 06:27:42;;;;;;;12.00;5.60;;;18.90;99.90;;;;;;7368543;19;20015;-66
2023/08/20 06:30:09;;;;;;;8.80;5.35;;;19.00;99.90;;;;;;7368660;19;20014;-66
2023/08/20 06:32:36;;;;;;;10.43;6.10;;;19.20;99.90;;;;;;7364628;19;20011;-69
2023/08/20 06:35:02;;;;;;;9.63;5.53;;;19.40;99.90;;;;;;7375805;19;20011;-66
2023/08/20 06:37:31;;;;;;;10.77;5.53;;;19.40;99.90;;;;;;7370445;19;20015;-67
2023/08/20 06:39:57;;;;;;;10.48;5.50;;;19.60;99.90;;;;;;7372362;19;20739;-67
2023/08/20 06:42:23;;;;;;;10.70;4.93;;;19.80;99.90;;;;;;7374755;19;20473;-67
2023/08/20 06:44:50;;;;;;;38.00;34.10;;;20.00;99.90;;;;;;7371281;19;20553;-68
2023/08/20 06:47:16;;;;;;;31.52;26.15;;;20.20;99.90;;;;;;7375937;19;20521;-64
2023/08/20 06:49:42;;;;;;;33.25;26.10;;;20.50;99.90;;;;;;7377197;19;20623;-64
2023/08/20 06:52:09;;;;;;;10.23;5.68;;;20.70;99.90;;;;;;7377414;19;20026;-64
2023/08/20 06:54:35;;;;;;;18.55;12.93;;;21.00;99.90;;;;;;7376305;19;20033;-63
2023/08/20 06:57:02;;;;;;;29.25;24.67;;;21.30;99.90;;;;;;7372501;19;20018;-65
2023/08/20 06:59:28;;;;;;;16.52;14.00;;;21.50;99.90;;;;;;7374069;19;20053;-65
2023/08/20 07:01:54;;;;;;;11.60;6.30;;;21.70;99.90;;;;;;7365491;19;20796;-65
2023/08/20 07:04:20;;;;;;;14.05;9.40;;;21.80;99.90;;;;;;7370212;19;20030;-63
2023/08/20 07:06:46;;;;;;;7.93;4.57;;;22.10;99.90;;;;;;7374511;19;20025;-64
2023/08/20 07:09:12;;;;;;;8.20;5.35;;;22.30;99.90;;;;;;7372995;19;20014;-65
2023/08/20 07:11:39;;;;;;;9.85;5.30;;;22.60;99.90;;;;;;7370480;19;20026;-65
2023/08/20 07:14:05;;;;;;;15.77;8.77;;;22.90;99.90;;;;;;7373257;19;20011;-64
2023/08/20 07:16:31;;;;;;;12.38;6.65;;;22.90;99.90;;;;;;7371080;19;20061;-67
2023/08/20 07:18:58;;;;;;;14.20;8.93;;;23.10;99.90;;;;;;7369916;19;20018;-65
2023/08/20 07:21:24;;;;;;;10.15;5.53;;;23.10;99.90;;;;;;7373529;19;20018;-63
2023/08/20 07:23:50;;;;;;;11.65;6.03;;;23.30;99.90;;;;;;7362955;19;20018;-62
2023/08/20 07:26:16;;;;;;;10.73;5.15;;;23.40;99.90;;;;;;7372271;19;20437;-64
2023/08/20 07:28:58;;;;;;;19.92;11.93;;;23.60;99.90;;;;;;7360410;19;20014;-63
2023/08/20 07:31:25;;;;;;;13.43;6.55;;;23.60;99.90;;;;;;7366656;19;20050;-67
2023/08/20 07:33:53;;;;;;;12.13;7.10;;;24.00;99.90;;;;;;7366368;19;20021;-62
2023/08/20 07:36:21;;;;;;;9.57;4.03;;;24.40;99.90;;;;;;7373972;19;20006;-66
2023/08/20 07:38:48;;;;;;;12.85;6.15;;;24.50;99.90;;;;;;7365665;19;20018;-65
2023/08/20 07:41:14;;;;;;;9.25;3.33;;;24.80;99.90;;;;;;7373276;19;20028;-66
2023/08/20 07:43:41;;;;;;;11.07;4.03;;;24.90;99.90;;;;;;7369300;19;20493;-69
2023/08/20 07:46:08;;;;;;;7.93;3.00;;;25.00;99.90;;;;;;7373937;19;20086;-70
2023/08/20 07:48:35;;;;;;;7.18;3.15;;;25.00;99.90;;;;;;7384467;19;21234;-71
2023/08/20 07:51:02;;;;;;;8.23;3.42;;;24.90;99.90;;;;;;7385627;19;20021;-70
2023/08/20 07:53:32;;;;;;;10.77;3.38;;;25.20;99.90;;;;;;7381666;19;20018;-67
2023/08/20 07:56:00;;;;;;;10.25;3.83;;;25.10;99.90;;;;;;7373946;19;20018;-67
2023/08/20 07:58:26;;;;;;;7.68;2.83;;;25.10;99.90;;;;;;7374804;19;20499;-67
2023/08/20 08:00:52;;;;;;;9.27;2.72;;;25.20;99.90;;;;;;7373791;19;20018;-66
2023/08/20 08:03:22;;;;;;;7.10;3.03;;;25.30;99.90;;;;;;7370298;19;20486;-66
2023/08/20 08:05:49;;;;;;;7.43;2.45;;;25.60;99.90;;;;;;7383786;19;20042;-70
2023/08/20 08:08:16;;;;;;;9.38;3.25;;;25.50;99.90;;;;;;7389934;19;20010;-71
2023/08/20 08:10:46;;;;;;;9.48;3.10;;;25.90;99.90;;;;;;7389447;19;20011;-71
2023/08/20 08:13:14;;;;;;;8.50;2.87;;;25.80;99.90;;;;;;7391675;19;20018;-71
2023/08/20 08:15:40;;;;;;;10.23;2.83;;;26.20;99.90;;;;;;7394040;19;20267;-71
2023/08/20 08:18:07;;;;;;;6.97;2.25;;;26.10;99.90;;;;;;7376649;19;20489;-67
2023/08/20 08:20:34;;;;;;;10.75;3.10;;;26.10;99.90;;;;;;7371943;19;20053;-67
2023/08/20 08:23:00;;;;;;;8.40;2.53;;;26.20;99.90;;;;;;7370822;19;20014;-67
2023/08/20 08:25:27;;;;;;;7.53;2.88;;;26.20;99.90;;;;;;7372940;19;20530;-67
2023/08/20 08:27:53;;;;;;;8.90;2.55;;;26.20;99.90;;;;;;7377157;19;20022;-71
2023/08/20 08:30:19;;;;;;;8.35;2.60;;;26.10;99.90;;;;;;7391738;19;20090;-71
2023/08/20 08:32:46;;;;;;;12.38;2.78;;;26.40;99.90;;;;;;7389173;19;20943;-71
2023/08/20 08:35:13;;;;;;;9.25;2.42;;;26.60;99.90;;;;;;7390525;19;20023;-71
2023/08/20 08:37:39;;;;;;;10.38;2.80;;;26.70;99.90;;;;;;7388007;19;20015;-70
2023/08/20 08:40:06;;;;;;;8.43;2.72;;;26.80;99.90;;;;;;7387823;19;20011;-70
2023/08/20 08:42:35;;;;;;;8.63;2.60;;;27.20;99.90;;;;;;7386156;19;20416;-71
2023/08/20 08:45:02;;;;;;;9.82;2.58;;;27.30;99.90;;;;;;7386656;19;20018;-71
2023/08/20 08:47:36;;;;;;;8.00;2.42;;;27.50;99.90;;;;;;7391459;19;20010;-71
2023/08/20 08:50:04;;;;;;;9.77;3.10;;;27.80;99.90;;;;;;7391579;19;20453;-71
2023/08/20 08:52:31;;;;;;;8.35;2.85;;;27.90;99.90;;;;;;7389930;19;20451;-71
2023/08/20 08:54:57;;;;;;;9.95;2.60;;;27.90;99.90;;;;;;7373991;19;20015;-67
2023/08/20 08:57:23;;;;;;;6.55;1.77;;;28.20;99.90;;;;;;7370054;19;20506;-67
2023/08/20 08:59:50;;;;;;;8.10;2.00;;;28.20;99.90;;;;;;7368107;19;20465;-66
2023/08/20 09:02:18;;;;;;;10.38;1.77;;;28.50;99.90;;;;;;7370085;19;20014;-66
2023/08/20 09:04:44;;;;;;;8.23;1.77;;;28.50;99.90;;;;;;7371951;19;20467;-65
2023/08/20 09:07:14;;;;;;;7.57;1.67;;;28.20;99.90;;;;;;7369141;19;20019;-66
2023/08/20 09:09:45;;;;;;;5.30;1.52;;;27.90;99.10;;;;;;7370206;19;20086;-66
2023/08/20 09:12:19;;;;;;;9.50;1.60;;;28.20;99.90;;;;;;7369631;19;20077;-66
2023/08/20 09:14:48;;;;;;;6.60;1.40;;;28.40;99.20;;;;;;7370272;19;20489;-66
2023/08/20 09:17:15;;;;;;;6.38;1.65;;;28.60;99.70;;;;;;7368386;19;20809;-66
2023/08/20 09:19:44;;;;;;;6.30;1.42;;;28.80;98.40;;;;;;7363116;19;20020;-66
2023/08/20 09:22:14;;;;;;;7.25;1.70;;;28.90;97.40;;;;;;7369855;19;20033;-67
2023/08/20 09:24:42;;;;;;;6.50;1.48;;;29.00;96.60;;;;;;7365877;19;20022;-67
2023/08/20 09:27:09;;;;;;;5.65;1.33;;;28.90;95.60;;;;;;7370766;19;20388;-66
2023/08/20 09:29:45;;;;;;;6.40;1.50;;;28.90;94.30;;;;;;7369338;19;20461;-66
2023/08/20 09:32:16;;;;;;;6.30;1.50;;;29.00;92.10;;;;;;7369199;19;20018;-66
2023/08/20 09:34:42;;;;;;;5.28;1.20;;;29.20;91.90;;;;;;7365339;19;20372;-66
2023/08/20 09:37:22;;;;;;;8.95;1.52;;;29.10;91.80;;;;;;7371617;19;20188;-65
2023/08/20 09:39:49;;;;;;;5.53;1.10;;;29.00;89.30;;;;;;7368340;19;20025;-67
2023/08/20 09:42:16;;;;;;;5.70;1.30;;;28.90;89.10;;;;;;7369272;19;20019;-66
2023/08/20 09:44:47;;;;;;;3.17;0.93;;;28.80;89.10;;;;;;7365112;19;20032;-66
2023/08/20 09:47:14;;;;;;;3.70;1.10;;;29.10;87.60;;;;;;7370118;19;20015;-66
2023/08/20 09:49:43;;;;;;;6.30;1.63;;;29.30;87.00;;;;;;7366500;19;20029;-66
2023/08/20 09:52:12;;;;;;;6.72;1.75;;;29.00;87.10;;;;;;7369096;19;20474;-69
2023/08/20 09:54:50;;;;;;;5.70;1.40;;;29.00;85.90;;;;;;7381976;19;20021;-71
2023/08/20 09:57:31;;;;;;;6.85;1.73;;;29.00;87.70;;;;;;7378628;19;20028;-66
2023/08/20 09:59:59;;;;;;;5.28;1.50;;;28.80;85.90;;;;;;7389183;19;20021;-66
2023/08/20 10:02:26;;;;;;;9.25;1.98;;;28.70;87.60;;;;;;7378646;19;20020;-71
2023/08/20 10:04:53;;;;;;;5.55;1.50;;;28.80;88.30;;;;;;7364645;19;20354;-65
2023/08/20 10:07:21;;;;;;;4.30;1.30;;;29.20;87.40;;;;;;7369194;19;20233;-65
2023/08/20 10:09:50;;;;;;;8.20;1.48;;;29.50;87.40;;;;;;7373777;19;20014;-66
2023/08/20 10:12:17;;;;;;;7.20;1.88;;;29.80;86.10;;;;;;7401434;19;20553;-71
2023/08/20 10:14:44;;;;;;;6.22;1.45;;;30.30;85.70;;;;;;7392448;19;20018;-72
2023/08/20 10:17:12;;;;;;;7.18;1.85;;;30.10;83.00;;;;;;7389569;19;20485;-70
2023/08/20 10:19:38;;;;;;;5.88;1.75;;;30.30;83.70;;;;;;7388488;19;20514;-71
2023/08/20 10:22:07;;;;;;;6.03;1.63;;;30.00;83.30;;;;;;7384715;19;20018;-71
2023/08/20 10:24:52;;;;;;;6.65;1.92;;;30.30;81.80;;;;;;7380874;19;20022;-72
2023/08/20 10:27:32;;;;;;;6.63;1.45;;;30.70;82.10;;;;;;7390065;19;20010;-71
2023/08/20 10:29:59;;;;;;;3.45;0.88;;;30.40;79.70;;;;;;7386510;19;20029;-71
2023/08/20 10:32:50;;;;;;;6.32;1.50;;;30.80;79.90;;;;;;7378395;19;20059;-72
2023/08/20 10:35:27;;;;;;;6.38;2.88;;;31.00;75.40;;;;;;7372902;19;20383;-69
2023/08/20 10:38:16;;;;;;;5.40;1.58;;;30.90;75.70;;;;;;7367396;19;20039;-72
2023/08/20 10:40:58;;;;;;;19.45;17.42;;;31.20;72.10;;;;;;7369086;19;20734;-71
2023/08/20 10:43:30;;;;;;;7.75;4.28;;;31.30;69.50;;;;;;7370866;19;20022;-73
2023/08/20 10:46:04;;;;;;;22.10;19.85;;;30.90;68.80;;;;;;7378137;19;20018;-73
2023/08/20 10:48:33;;;;;;;7.40;3.38;;;30.90;69.50;;;;;;7373719;19;20551;-75
2023/08/20 10:51:13;;;;;;;4.88;1.88;;;30.90;68.00;;;;;;7372088;19;20498;-74
2023/08/20 10:53:42;;;;;;;5.78;2.70;;;31.30;68.80;;;;;;7369633;19;20485;-72
2023/08/20 10:56:09;;;;;;;9.45;7.15;;;31.80;67.50;;;;;;7376900;19;20490;-72
2023/08/20 10:58:38;;;;;;;5.95;1.90;;;31.60;68.30;;;;;;7372486;19;20031;-72
2023/08/20 11:01:18;;;;;;;6.07;2.75;;;31.90;66.80;;;;;;7371781;19;20434;-73
2023/08/20 11:03:49;;;;;;;8.57;1.98;;;31.50;67.70;;;;;;7371499;19;20143;-74
2023/08/20 11:06:17;;;;;;;6.60;2.75;;;31.90;69.20;;;;;;7371244;19;20014;-72
2023/08/20 11:08:43;;;;;;;5.13;1.70;;;32.10;67.70;;;;;;7373621;19;20431;-73
2023/08/20 11:11:10;;;;;;;8.88;2.17;;;32.00;68.30;;;;;;7374357;19;20015;-68
2023/08/20 11:13:37;;;;;;;6.88;3.42;;;32.10;67.20;;;;;;7371859;19;20021;-77
2023/08/20 11:16:06;;;;;;;4.80;1.75;;;32.50;67.30;;;;;;7368935;19;20029;-73
2023/08/20 11:18:33;;;;;;;8.98;5.80;;;32.40;65.80;;;;;;7367622;19;20022;-73
2023/08/20 11:21:00;;;;;;;9.85;5.07;;;32.70;65.60;;;;;;7365462;19;20375;-74
2023/08/20 11:23:28;;;;;;;5.80;1.73;;;32.90;64.50;;;;;;7369444;19;20055;-74
2023/08/20 11:25:54;;;;;;;9.38;5.97;;;32.90;64.50;;;;;;7368240;19;20026;-72
2023/08/20 11:28:21;;;;;;;15.13;11.73;;;32.90;65.00;;;;;;7371380;19;21049;-74
2023/08/20 11:30:47;;;;;;;14.57;12.60;;;33.20;65.00;;;;;;7366921;19;20018;-72
2023/08/20 11:33:14;;;;;;;5.75;1.70;;;32.70;64.70;;;;;;7370571;19;20053;-73
2023/08/20 11:35:41;;;;;;;6.05;2.17;;;33.10;64.90;;;;;;7367867;19;20022;-74
2023/08/20 11:38:13;;;;;;;6.13;2.55;;;33.20;62.40;;;;;;7370372;19;20050;-73
2023/08/20 11:40:39;;;;;;;5.18;1.60;;;33.00;60.00;;;;;;7366080;19;20033;-74
2023/08/20 11:43:07;;;;;;;7.25;1.85;;;33.30;59.50;;;;;;7365457;19;20018;-73
2023/08/20 11:45:44;;;;;;;6.03;1.23;;;33.30;59.80;;;;;;7366608;19;20019;-75
2023/08/20 11:48:10;;;;;;;6.32;3.78;;;32.80;59.40;;;;;;7372787;19;20086;-75
2023/08/20 11:50:40;;;;;;;5.28;1.00;;;32.60;60.40;;;;;;7367912;19;20025;-76
2023/08/20 11:53:09;;;;;;;20.27;18.17;;;32.60;60.10;;;;;;7369916;19;20021;-73
2023/08/20 11:55:35;;;;;;;14.52;11.23;;;32.80;60.00;;;;;;7369497;19;20662;-78
2023/08/20 11:58:01;;;;;;;12.95;11.55;;;32.50;59.80;;;;;;7363634;19;20475;-74
2023/08/20 12:00:30;;;;;;;5.65;2.10;;;31.80;58.30;;;;;;7370102;19;20014;-75
2023/08/20 12:02:58;;;;;;;6.07;2.90;;;32.20;58.60;;;;;;7363308;19;20039;-75
2023/08/20 12:05:27;;;;;;;5.22;1.45;;;32.10;58.70;;;;;;7368795;19;20038;-74
2023/08/20 12:07:59;;;;;;;11.25;9.38;;;32.50;59.20;;;;;;7369537;19;20081;-74
2023/08/20 12:10:27;;;;;;;8.20;6.28;;;32.70;58.10;;;;;;7375812;19;20482;-73
2023/08/20 12:12:58;;;;;;;6.50;3.15;;;32.70;58.00;;;;;;7367659;19;20050;-67
2023/08/20 12:15:27;;;;;;;11.20;9.27;;;33.00;56.20;;;;;;7368469;19;20018;-67
2023/08/20 12:17:58;;;;;;;7.22;4.82;;;33.10;56.50;;;;;;7361838;19;20471;-66
2023/08/20 12:20:30;;;;;;;65.72;60.33;;;32.80;56.60;;;;;;7371014;19;20022;-68
2023/08/20 12:22:59;;;;;;;55.58;50.72;;;32.90;56.30;;;;;;7366331;19;20693;-66
2023/08/20 12:25:27;;;;;;;6.97;3.13;;;33.10;55.90;;;;;;7364776;19;20924;-66
2023/08/20 12:27:53;;;;;;;3.78;1.38;;;33.00;55.70;;;;;;7366107;19;20046;-67
2023/08/20 12:30:20;;;;;;;3.38;0.98;;;33.20;55.70;;;;;;7363518;19;20029;-63
2023/08/20 12:32:46;;;;;;;2.72;0.80;;;33.20;55.30;;;;;;7363257;19;20450;-63
2023/08/20 12:35:13;;;;;;;5.00;0.98;;;33.30;56.10;;;;;;7363060;19;20015;-63
2023/08/20 12:37:39;;;;;;;2.70;0.70;;;33.60;56.60;;;;;;7362414;19;20018;-64
2023/08/20 12:40:16;;;;;;;2.92;0.80;;;33.80;54.90;;;;;;7367282;19;22092;-64
2023/08/20 12:42:43;;;;;;;4.78;0.80;;;33.80;54.50;;;;;;7365842;19;20383;-63